Startpagina
METAR-TAF:

METAR-TAF

Vliegvelden :

Seldovia, Alaska, Verenigde Staten

breedte: 59-27N, lengte: 151-42W, hoogte: 9 m

Actueel weer

Dit bericht is 56 minuten geleden gemaakt, om 22:53 UTC
Wind 11 kt uit het noordnoordoosten
Temperatuur 6°C
Vochtigheid 87%
Druk 997 hPa
Zicht: 9.7 km
Gebroken wolken op 3600 ft
Geheel bewolkt op 4600 ft
lichte regen, nevel

METAR: PASO 212253Z AUTO 02011KT 6SM -RA BR BKN036 OVC046 06/04 A2944 RMK AO2 SLP969 P0003 T00560044 TSNO

Tijdstip: 15:49 (23:49 UTC)


TAF: ontbreekt

Waarnemingen en weersverwachtingen van meer dan 4000 vliegvelden (METAR en TAF).

De beschikbare stations zijn de gele en rode punten op de kaart.

Ga met uw muis naar het station om de naam te zien.

Klik dan om waarnemingen en weersverwachtingen te zien.

kaart wijzigen: klik op de groene knoppen met een zwart kruis om in te zoomen, op de groene knop met een streepje om uit te zoomen of op de groene pijlen voor aangrenzende kaarten.


METAR-TAF: